Time;durP1;ratioP1;P1;durP2;ratioP2;P2;SDS_P1;SDS_P2;PMS_P1;PMS_P2;Temp;Humidity;BMP_temperature;BMP_pressure;BME280_temperature;BME280_humidity;BME280_pressure;Samples;Min_cycle;Max_cycle;Signal;HPM_P1;HPM_P2
2022/05/21 00:02:51;;;;;;;;;;;;;;;14.14;100.00;100533.13;4635556;23;10000762;-71
2022/05/21 00:05:17;;;;;;;;;;;;;;;14.35;100.00;100530.69;5052112;28;20400;-68
2022/05/21 00:07:43;;;;;;;;;;;;;;;14.88;100.00;100539.03;5052277;28;19956;-68
2022/05/21 00:10:09;;;;;;;;;;;;;;;14.53;100.00;100531.78;5051987;28;20392;-68
2022/05/21 00:12:34;;;;;;;;;;;;;;;14.53;100.00;100535.19;5052296;28;19916;-68
2022/05/21 00:15:00;;;;;;;;;;;;;;;14.25;100.00;100526.75;5052412;28;20370;-68
2022/05/21 00:17:25;;;;;;;;;;;;;;;14.20;100.00;100520.94;5051788;28;20370;-69
2022/05/21 00:19:50;;;;;;;;;;;;;;;14.26;100.00;100522.47;5051909;28;19913;-68
2022/05/21 00:22:16;;;;;;;;;;;;;;;14.33;100.00;100521.41;5033702;28;19935;-68
2022/05/21 00:24:41;;;;;;;;;;;;;;;13.87;100.00;100516.97;5051576;28;19928;-68
2022/05/21 00:27:07;;;;;;;;;;;;;;;14.10;100.00;100516.22;5052206;28;20013;-68
2022/05/21 00:29:32;;;;;;;;;;;;;;;13.84;100.00;100525.56;5052029;28;19912;-69
2022/05/21 00:31:58;;;;;;;;;;;;;;;13.98;100.00;100517.47;5051917;28;20373;-68
2022/05/21 00:34:24;;;;;;;;;;;;;;;14.01;100.00;100516.50;5052055;28;19924;-70
2022/05/21 00:36:49;;;;;;;;;;;;;;;14.41;100.00;100517.69;5033977;28;19912;-69
2022/05/21 00:39:14;;;;;;;;;;;;;;;14.29;100.00;100522.41;5034063;28;19912;-69
2022/05/21 00:41:40;;;;;;;;;;;;;;;14.40;100.00;100521.13;5051815;28;19916;-69
2022/05/21 00:44:06;;;;;;;;;;;;;;;14.52;100.00;100522.41;5051741;28;19991;-67
2022/05/21 00:46:33;;;;;;;;;;;;;;;14.36;100.00;100518.75;5051849;28;19913;-68
2022/05/21 00:49:16;;;;;;;;;;;;;;;14.33;100.00;100516.28;5051884;28;20011;-69
2022/05/21 00:51:45;;;;;;;;;;;;;;;14.11;100.00;100518.72;5051588;28;19919;-68
2022/05/21 00:54:11;;;;;;;;;;;;;;;14.15;100.00;100520.28;5051768;28;19939;-68
2022/05/21 00:56:38;;;;;;;;;;;;;;;14.18;100.00;100509.13;5033722;28;20244;-68
2022/05/21 01:01:52;;;;;;;;;;;;;;;13.83;100.00;100507.72;5051235;28;19924;-68
2022/05/21 01:04:18;;;;;;;;;;;;;;;13.82;100.00;100506.06;5051634;28;19927;-68
2022/05/21 01:06:44;;;;;;;;;;;;;;;14.36;100.00;100503.41;5051540;28;19913;-71
2022/05/21 01:09:09;;;;;;;;;;;;;;;13.90;100.00;100507.47;5051535;28;20394;-69
2022/05/21 01:11:35;;;;;;;;;;;;;;;13.84;100.00;100502.56;5051497;28;19908;-69
2022/05/21 01:14:01;;;;;;;;;;;;;;;14.06;100.00;100497.59;5051525;28;19912;-69
2022/05/21 01:16:27;;;;;;;;;;;;;;;14.22;100.00;100501.25;5051842;28;19912;-69
2022/05/21 01:18:52;;;;;;;;;;;;;;;14.19;100.00;100495.44;5033865;28;19909;-68
2022/05/21 01:21:17;;;;;;;;;;;;;;;13.98;100.00;100491.91;5051310;28;19912;-69
2022/05/21 01:23:42;;;;;;;;;;;;;;;14.21;100.00;100491.09;5051439;28;20287;-68
2022/05/21 01:26:14;;;;;;;;;;;;;;;13.62;100.00;100488.84;5033203;28;20349;-68
2022/05/21 01:28:41;;;;;;;;;;;;;;;13.55;100.00;100491.59;5051487;28;19999;-68
2022/05/21 01:31:07;;;;;;;;;;;;;;;14.09;100.00;100486.41;5051419;28;19916;-68
2022/05/21 01:33:34;;;;;;;;;;;;;;;13.52;100.00;100492.56;5051027;28;19919;-68
2022/05/21 01:35:59;;;;;;;;;;;;;;;13.50;100.00;100489.22;5055197;28;19970;-68
2022/05/21 01:38:26;;;;;;;;;;;;;;;13.37;100.00;100482.81;5037424;28;19912;-68
2022/05/21 01:40:51;;;;;;;;;;;;;;;13.61;100.00;100489.69;5055231;28;19913;-68
2022/05/21 01:46:01;;;;;;;;;;;;;;;12.86;100.00;100492.00;5055255;28;19970;-68
2022/05/21 01:48:28;;;;;;;;;;;;;;;12.95;100.00;100486.66;5055075;28;20294;-69
2022/05/21 01:50:54;;;;;;;;;;;;;;;13.13;100.00;100487.84;5055199;28;19919;-68
2022/05/21 01:53:20;;;;;;;;;;;;;;;12.98;100.00;100487.38;5055015;28;19913;-68
2022/05/21 01:55:46;;;;;;;;;;;;;;;12.80;100.00;100475.16;5036770;28;20441;-68
2022/05/21 01:58:11;;;;;;;;;;;;;;;12.96;100.00;100473.00;5054671;28;19917;-69
2022/05/21 02:00:37;;;;;;;;;;;;;;;12.79;100.00;100468.41;5036748;28;19936;-69
2022/05/21 02:03:02;;;;;;;;;;;;;;;12.68;100.00;100465.31;5036803;28;19916;-69
2022/05/21 02:05:28;;;;;;;;;;;;;;;12.87;100.00;100463.06;5054884;28;20338;-67
2022/05/21 02:07:53;;;;;;;;;;;;;;;12.61;100.00;100463.81;5054902;28;19924;-69
2022/05/21 02:10:19;;;;;;;;;;;;;;;13.07;100.00;100459.06;5036967;28;20298;-68
2022/05/21 02:12:44;;;;;;;;;;;;;;;12.83;100.00;100456.38;5054448;28;19978;-68
2022/05/21 02:15:10;;;;;;;;;;;;;;;12.85;100.00;100449.53;5036376;28;19935;-68
2022/05/21 02:17:35;;;;;;;;;;;;;;;12.79;100.00;100463.31;5054747;28;20011;-68
2022/05/21 02:20:00;;;;;;;;;;;;;;;12.50;100.00;100465.81;5054468;28;19913;-70
2022/05/21 02:22:26;;;;;;;;;;;;;;;12.46;100.00;100459.13;5036275;28;19912;-68
2022/05/21 02:24:52;;;;;;;;;;;;;;;12.88;100.00;100451.97;5054472;28;19912;-68
2022/05/21 02:27:17;;;;;;;;;;;;;;;12.37;100.00;100445.81;5054418;28;19909;-68
2022/05/21 02:29:42;;;;;;;;;;;;;;;12.43;100.00;100456.69;5054096;28;19921;-69
2022/05/21 02:32:09;;;;;;;;;;;;;;;12.54;100.00;100456.41;5054384;28;19913;-69
2022/05/21 02:34:35;;;;;;;;;;;;;;;12.49;100.00;100460.78;5054059;28;19909;-69
2022/05/21 02:39:44;;;;;;;;;;;;;;;11.97;100.00;100443.50;5053933;28;19969;-68
2022/05/21 02:44:53;;;;;;;;;;;;;;;12.53;100.00;100444.50;5054108;28;19920;-70
2022/05/21 02:47:19;;;;;;;;;;;;;;;12.39;100.00;100442.34;5052853;28;19912;-68
2022/05/21 02:49:44;;;;;;;;;;;;;;;12.31;100.00;100443.44;5053921;28;20004;-69
2022/05/21 02:52:09;;;;;;;;;;;;;;;12.22;100.00;100449.63;5036037;28;19942;-68
2022/05/21 02:54:34;;;;;;;;;;;;;;;12.37;100.00;100444.09;5053738;28;20386;-69
2022/05/21 02:57:00;;;;;;;;;;;;;;;12.63;100.00;100440.81;5036204;28;19916;-68
2022/05/21 02:59:26;;;;;;;;;;;;;;;12.21;100.00;100440.31;5053727;28;19913;-69
2022/05/21 03:01:51;;;;;;;;;;;;;;;12.37;100.00;100440.72;5035476;28;20031;-69
2022/05/21 03:04:16;;;;;;;;;;;;;;;12.23;100.00;100440.25;5035833;28;19919;-69
2022/05/21 03:06:42;;;;;;;;;;;;;;;12.27;100.00;100441.84;5035478;28;19920;-69
2022/05/21 03:11:50;;;;;;;;;;;;;;;12.53;100.00;100444.50;5053320;28;19920;-68
2022/05/21 03:14:16;;;;;;;;;;;;;;;12.33;100.00;100454.41;5035662;28;19912;-70
2022/05/21 03:16:41;;;;;;;;;;;;;;;12.14;100.00;100447.25;5053705;28;20279;-69
2022/05/21 03:19:06;;;;;;;;;;;;;;;12.59;100.00;100449.44;5053546;28;20115;-69
2022/05/21 03:21:32;;;;;;;;;;;;;;;12.42;100.00;100452.44;5053534;28;19919;-69
2022/05/21 03:23:58;;;;;;;;;;;;;;;12.58;100.00;100447.75;5053231;28;19912;-69
2022/05/21 03:26:23;;;;;;;;;;;;;;;12.47;100.00;100450.63;5035325;28;19912;-69
2022/05/21 03:28:49;;;;;;;;;;;;;;;12.61;100.00;100450.22;5035058;28;19919;-70
2022/05/21 03:31:14;;;;;;;;;;;;;;;12.82;100.00;100447.88;5035432;28;19912;-69
2022/05/21 03:33:39;;;;;;;;;;;;;;;12.87;100.00;100445.22;5035047;28;19980;-69
2022/05/21 03:36:05;;;;;;;;;;;;;;;12.59;100.00;100451.97;5053408;28;19993;-69
2022/05/21 03:38:30;;;;;;;;;;;;;;;12.74;100.00;100454.09;5035548;28;19912;-69
2022/05/21 03:40:55;;;;;;;;;;;;;;;12.11;100.00;100462.66;5051912;28;20397;-68
2022/05/21 03:43:21;;;;;;;;;;;;;;;12.20;100.00;100459.84;5032833;28;20824;-68
2022/05/21 03:45:46;;;;;;;;;;;;;;;12.16;100.00;100463.34;5014826;28;19929;-67
2022/05/21 03:48:12;;;;;;;;;;;;;;;12.49;100.00;100458.22;5015132;28;19917;-67
2022/05/21 03:50:37;;;;;;;;;;;;;;;12.33;100.00;100456.97;5014986;28;20051;-68
2022/05/21 03:53:03;;;;;;;;;;;;;;;12.71;100.00;100454.19;5032705;28;19913;-66
2022/05/21 03:55:30;;;;;;;;;;;;;;;12.17;100.00;100467.59;5032544;28;19920;-67
2022/05/21 03:57:56;;;;;;;;;;;;;;;12.53;100.00;100455.56;5032621;28;19959;-67
2022/05/21 04:00:21;;;;;;;;;;;;;;;12.69;100.00;100458.50;5028747;28;19944;-67
2022/05/21 04:02:46;;;;;;;;;;;;;;;12.84;100.00;100460.59;5051963;28;19917;-69
2022/05/21 04:05:13;;;;;;;;;;;;;;;12.52;100.00;100461.50;5034654;28;19913;-67
2022/05/21 04:07:39;;;;;;;;;;;;;;;12.56;100.00;100459.72;5052692;28;19970;-68
2022/05/21 04:10:05;;;;;;;;;;;;;;;12.78;100.00;100459.06;5034490;28;19916;-68
2022/05/21 04:12:30;;;;;;;;;;;;;;;12.71;100.00;100459.28;5052236;28;20015;-67
2022/05/21 04:14:56;;;;;;;;;;;;;;;12.94;100.00;100456.88;5052172;28;19923;-68
2022/05/21 04:17:21;;;;;;;;;;;;;;;13.16;100.00;100452.00;5052189;28;20405;-68
2022/05/21 04:19:46;;;;;;;;;;;;;;;13.07;100.00;100453.94;5051937;28;19974;-68
2022/05/21 04:22:11;;;;;;;;;;;;;;;13.15;100.00;100455.44;5051852;28;19913;-67
2022/05/21 04:24:37;;;;;;;;;;;;;;;13.11;100.00;100462.38;5052271;28;19913;-70
2022/05/21 04:27:02;;;;;;;;;;;;;;;13.14;100.00;100467.38;5051999;28;20387;-68
2022/05/21 04:29:28;;;;;;;;;;;;;;;13.48;100.00;100472.25;5051578;28;20298;-68
2022/05/21 04:31:53;;;;;;;;;;;;;;;13.87;100.00;100474.34;5051913;28;19916;-69
2022/05/21 04:34:18;;;;;;;;;;;;;;;13.84;100.00;100471.88;5034030;28;20047;-67
2022/05/21 04:36:44;;;;;;;;;;;;;;;13.82;100.00;100458.34;5027723;28;19917;-67
2022/05/21 04:39:09;;;;;;;;;;;;;;;14.04;100.00;100460.16;5046978;28;19917;-68
2022/05/21 04:41:35;;;;;;;;;;;;;;;14.30;100.00;100457.56;5051856;28;19917;-67
2022/05/21 04:44:02;;;;;;;;;;;;;;;14.33;100.00;100457.44;5051752;28;19917;-68
2022/05/21 04:46:28;;;;;;;;;;;;;;;14.50;100.00;100463.63;5051477;28;20393;-66
2022/05/21 04:48:53;;;;;;;;;;;;;;;13.79;100.00;100458.44;5033853;28;19912;-67
2022/05/21 04:51:19;;;;;;;;;;;;;;;14.99;100.00;100452.41;5051442;28;20022;-68
2022/05/21 04:53:44;;;;;;;;;;;;;;;14.97;100.00;100456.78;5051733;28;19923;-68
2022/05/21 04:56:09;;;;;;;;;;;;;;;14.62;100.00;100460.63;5051466;28;20235;-68
2022/05/21 04:58:35;;;;;;;;;;;;;;;15.16;100.00;100456.88;5051298;28;19930;-68
2022/05/21 05:01:02;;;;;;;;;;;;;;;15.41;100.00;100458.41;5033361;28;20345;-67
2022/05/21 05:03:27;;;;;;;;;;;;;;;15.68;100.00;100455.66;5051174;28;19916;-68
2022/05/21 05:05:52;;;;;;;;;;;;;;;15.99;100.00;100461.16;5033383;28;19913;-67
2022/05/21 05:08:19;;;;;;;;;;;;;;;15.77;100.00;100463.81;5051528;28;19913;-67
2022/05/21 05:10:46;;;;;;;;;;;;;;;15.98;100.00;100464.66;5051080;28;19935;-67
2022/05/21 05:13:12;;;;;;;;;;;;;;;15.94;100.00;100457.97;5051117;28;19912;-67
2022/05/21 05:15:38;;;;;;;;;;;;;;;16.37;100.00;100461.19;5051387;28;19919;-68
2022/05/21 05:18:08;;;;;;;;;;;;;;;16.61;100.00;100455.91;5051493;28;19912;-68
2022/05/21 05:20:34;;;;;;;;;;;;;;;16.52;100.00;100467.41;5051480;28;19962;-68
2022/05/21 05:22:59;;;;;;;;;;;;;;;17.14;100.00;100457.69;5033320;28;19962;-69
2022/05/21 05:25:25;;;;;;;;;;;;;;;17.44;100.00;100463.09;5051223;28;19912;-67
2022/05/21 05:27:50;;;;;;;;;;;;;;;17.17;100.00;100462.66;5033258;28;19908;-68
2022/05/21 05:30:17;;;;;;;;;;;;;;;17.60;100.00;100452.91;5050832;28;19920;-66
2022/05/21 05:32:42;;;;;;;;;;;;;;;18.03;100.00;100458.41;5051111;28;19936;-67
2022/05/21 05:35:08;;;;;;;;;;;;;;;18.06;100.00;100467.75;5032992;28;20317;-69
2022/05/21 05:37:34;;;;;;;;;;;;;;;17.97;100.00;100458.72;5051322;28;19923;-67
2022/05/21 05:39:59;;;;;;;;;;;;;;;18.35;100.00;100466.22;5051065;28;19912;-69
2022/05/21 05:42:24;;;;;;;;;;;;;;;18.74;100.00;100459.84;5051069;28;19979;-69
2022/05/21 05:44:49;;;;;;;;;;;;;;;18.65;100.00;100454.34;5051359;28;19920;-68
2022/05/21 05:47:15;;;;;;;;;;;;;;;18.31;100.00;100462.16;5050925;28;19912;-71
2022/05/21 05:49:40;;;;;;;;;;;;;;;18.75;100.00;100450.38;5051016;28;20451;-68
2022/05/21 05:52:06;;;;;;;;;;;;;;;19.07;100.00;100444.28;5051042;28;19919;-67
2022/05/21 05:54:33;;;;;;;;;;;;;;;19.14;100.00;100450.75;5051239;28;19920;-68
2022/05/21 05:56:58;;;;;;;;;;;;;;;18.85;100.00;100459.28;5050835;28;19912;-67
2022/05/21 06:04:51;;;;;;;;;;;;;;;18.64;100.00;100445.78;5043055;28;19919;-66
2022/05/21 06:07:16;;;;;;;;;;;;;;;19.64;100.00;100437.63;5050900;28;19912;-67
2022/05/21 06:09:42;;;;;;;;;;;;;;;19.60;100.00;100438.72;5050326;28;19920;-66
2022/05/21 06:12:08;;;;;;;;;;;;;;;19.57;100.00;100451.81;5049992;28;20020;-66
2022/05/21 06:14:34;;;;;;;;;;;;;;;20.19;100.00;100446.38;5032793;28;20016;-68
2022/05/21 06:16:59;;;;;;;;;;;;;;;20.34;100.00;100440.28;5050717;28;20385;-69
2022/05/21 06:19:25;;;;;;;;;;;;;;;20.29;100.00;100446.66;5050556;28;19913;-69
2022/05/21 06:21:55;;;;;;;;;;;;;;;20.54;100.00;100445.06;5052548;28;20355;-69
2022/05/21 06:24:20;;;;;;;;;;;;;;;20.74;100.00;100439.50;5036010;28;19924;-69
2022/05/21 06:26:46;;;;;;;;;;;;;;;20.86;100.00;100442.25;5053761;28;19916;-69
2022/05/21 06:29:12;;;;;;;;;;;;;;;20.97;100.00;100430.31;5035677;28;19924;-68
2022/05/21 06:31:38;;;;;;;;;;;;;;;21.29;100.00;100431.66;5035406;28;20054;-69
2022/05/21 06:34:04;;;;;;;;;;;;;;;21.05;91.83;100435.84;5053283;28;19919;-69
2022/05/21 06:36:29;;;;;;;;;;;;;;;21.36;94.21;100430.38;5051952;28;19916;-70
2022/05/21 06:38:55;;;;;;;;;;;;;;;21.73;83.45;100430.53;5052555;28;20456;-68
2022/05/21 06:41:21;;;;;;;;;;;;;;;21.34;81.91;100427.03;5052758;28;19917;-74
2022/05/21 06:43:46;;;;;;;;;;;;;;;22.18;80.69;100433.47;5053325;28;19912;-69
2022/05/21 06:46:11;;;;;;;;;;;;;;;21.88;79.38;100432.97;5053449;28;19912;-69
2022/05/21 06:48:37;;;;;;;;;;;;;;;22.18;85.54;100417.94;5052968;28;19913;-72
2022/05/21 06:51:05;;;;;;;;;;;;;;;22.41;88.04;100408.53;5040265;28;19961;-69
2022/05/21 06:53:31;;;;;;;;;;;;;;;21.65;82.09;100407.72;5049118;28;20021;-68
2022/05/21 06:55:57;;;;;;;;;;;;;;;22.23;80.91;100400.28;5039540;28;20444;-68
2022/05/21 06:58:22;;;;;;;;;;;;;;;20.79;82.12;100397.88;5013491;28;20499;-68
2022/05/21 07:00:47;;;;;;;;;;;;;;;22.20;78.78;100399.69;5031340;28;20312;-69
2022/05/21 07:03:13;;;;;;;;;;;;;;;21.79;79.21;100405.03;5031512;28;20354;-69
2022/05/21 07:08:24;;;;;;;;;;;;;;;22.22;75.02;100392.63;5031785;28;19978;-68
2022/05/21 07:10:51;;;;;;;;;;;;;;;22.21;76.32;100391.78;5014200;28;19913;-68
2022/05/21 07:13:17;;;;;;;;;;;;;;;23.05;73.34;100382.31;5031956;28;19920;-68
2022/05/21 07:15:43;;;;;;;;;;;;;;;22.97;72.98;100386.41;5031972;28;19913;-69
2022/05/21 07:18:09;;;;;;;;;;;;;;;22.48;71.42;100388.22;5031960;28;19913;-71
2022/05/21 07:20:34;;;;;;;;;;;;;;;22.04;72.78;100371.41;5031791;28;19931;-70
2022/05/21 07:23:00;;;;;;;;;;;;;;;22.89;68.69;100376.59;5031699;28;19924;-68
2022/05/21 07:25:27;;;;;;;;;;;;;;;23.27;71.26;100382.38;5031799;28;19920;-68
2022/05/21 07:27:53;;;;;;;;;;;;;;;23.51;68.87;100384.94;5032471;28;19936;-70
2022/05/21 07:30:18;;;;;;;;;;;;;;;23.07;67.01;100387.38;5032746;28;20378;-75
2022/05/21 07:32:45;;;;;;;;;;;;;;;23.65;68.77;100384.72;5017167;28;20410;-70
2022/05/21 07:35:12;;;;;;;;;;;;;;;22.57;70.45;100387.56;5032460;28;19978;-76
2022/05/21 07:37:37;;;;;;;;;;;;;;;23.69;67.47;100373.16;5032381;28;19912;-68
2022/05/21 07:40:03;;;;;;;;;;;;;;;24.30;68.55;100363.28;5032676;28;20390;-69
2022/05/21 07:42:28;;;;;;;;;;;;;;;23.74;66.23;100363.28;5032450;28;19994;-70
2022/05/21 07:44:56;;;;;;;;;;;;;;;23.78;68.73;100351.72;5031639;28;19917;-66
2022/05/21 07:47:24;;;;;;;;;;;;;;;24.09;68.53;100345.81;5014841;28;19963;-68
2022/05/21 07:49:51;;;;;;;;;;;;;;;24.41;68.20;100348.50;5033098;28;19913;-68
2022/05/21 07:52:17;;;;;;;;;;;;;;;24.28;68.40;100334.81;5032878;28;19917;-71
2022/05/21 07:54:42;;;;;;;;;;;;;;;24.48;71.37;100330.66;5032686;28;19920;-68
2022/05/21 07:57:07;;;;;;;;;;;;;;;24.21;69.75;100335.41;5013282;28;19919;-68
2022/05/21 07:59:33;;;;;;;;;;;;;;;23.84;71.85;100343.44;5014335;28;20315;-67
2022/05/21 08:01:59;;;;;;;;;;;;;;;23.98;71.22;100327.63;5013836;28;19917;-78
2022/05/21 08:04:24;;;;;;;;;;;;;;;24.31;68.81;100333.75;5032902;28;19963;-67
2022/05/21 08:06:49;;;;;;;;;;;;;;;24.02;71.81;100331.66;5031557;28;20335;-69
2022/05/21 08:09:15;;;;;;;;;;;;;;;25.24;71.33;100330.44;5051500;28;19916;-67
2022/05/21 08:11:40;;;;;;;;;;;;;;;24.72;68.20;100332.13;5051383;28;19920;-67
2022/05/21 08:14:05;;;;;;;;;;;;;;;24.59;68.41;100328.00;5024269;28;19924;-67
2022/05/21 08:16:31;;;;;;;;;;;;;;;25.31;66.72;100327.22;5051528;28;20474;-67
2022/05/21 08:18:57;;;;;;;;;;;;;;;25.34;65.61;100326.97;5049956;28;20256;-67
2022/05/21 08:21:23;;;;;;;;;;;;;;;24.71;66.13;100329.63;5051414;28;19962;-67
2022/05/21 08:29:16;;;;;;;;;;;;;;;24.77;65.27;100313.53;5071668;28;19915;-66
2022/05/21 08:31:41;;;;;;;;;;;;;;;24.38;64.78;100312.34;5072311;28;19916;-67
2022/05/21 08:34:06;;;;;;;;;;;;;;;23.34;68.00;100312.69;5068766;28;20350;-67
2022/05/21 08:36:32;;;;;;;;;;;;;;;24.98;64.69;100301.38;5050766;28;19913;-67
2022/05/21 08:38:57;;;;;;;;;;;;;;;25.16;66.15;100305.06;5051537;28;19916;-67
2022/05/21 08:41:24;;;;;;;;;;;;;;;25.12;64.67;100308.03;5051614;28;20290;-66
2022/05/21 08:43:55;;;;;;;;;;;;;;;24.53;66.61;100303.31;5050795;28;19913;-66
2022/05/21 08:46:41;;;;;;;;;;;;;;;25.62;63.66;100299.44;5051937;28;19965;-67
2022/05/21 08:49:28;;;;;;;;;;;;;;;24.70;64.27;100296.75;5051523;28;19913;-66
2022/05/21 08:51:57;;;;;;;;;;;;;;;24.94;61.98;100298.19;5037122;28;20167;-69
2022/05/21 08:54:25;;;;;;;;;;;;;;;25.91;62.50;100289.16;5048449;28;20423;-67
2022/05/21 08:56:51;;;;;;;;;;;;;;;25.80;63.16;100271.81;5040496;28;20469;-66
2022/05/21 08:59:17;;;;;;;;;;;;;;;25.91;62.64;100270.91;5053450;28;19995;-68
2022/05/21 09:01:44;;;;;;;;;;;;;;;27.03;61.83;100270.31;5070738;28;20275;-67
2022/05/21 09:04:12;;;;;;;;;;;;;;;26.95;60.50;100267.59;5034432;28;20296;-68
2022/05/21 09:06:52;;;;;;;;;;;;;;;26.91;60.18;100268.81;5013553;28;20019;-67
2022/05/21 09:09:36;;;;;;;;;;;;;;;26.72;63.00;100268.81;5031387;28;20024;-67
2022/05/21 09:12:12;;;;;;;;;;;;;;;27.27;64.37;100275.06;5011677;28;20010;-67
2022/05/21 09:14:42;;;;;;;;;;;;;;;26.47;64.37;100271.97;5031033;28;19920;-67
2022/05/21 09:17:13;;;;;;;;;;;;;;;27.13;62.73;100272.91;5032545;28;19928;-68
2022/05/21 09:19:42;;;;;;;;;;;;;;;26.93;62.28;100255.63;5023046;28;19939;-67
2022/05/21 09:22:13;;;;;;;;;;;;;;;27.19;61.15;100254.91;5033267;28;20381;-67
2022/05/21 09:24:46;;;;;;;;;;;;;;;26.96;58.74;100245.72;5051521;28;19913;-68
2022/05/21 09:27:33;;;;;;;;;;;;;;;26.45;57.59;100239.97;5051269;28;19994;-67
2022/05/21 09:30:13;;;;;;;;;;;;;;;27.37;56.44;100239.31;5051653;28;20018;-67
2022/05/21 09:32:40;;;;;;;;;;;;;;;27.40;58.20;100229.41;5051339;28;19919;-67
2022/05/21 09:35:11;;;;;;;;;;;;;;;27.34;58.64;100232.59;5033175;28;19918;-69
2022/05/21 09:37:37;;;;;;;;;;;;;;;26.39;56.71;100228.31;5069291;28;19973;-67
2022/05/21 09:40:22;;;;;;;;;;;;;;;27.21;54.75;100221.63;5071309;28;19977;-67
2022/05/21 09:45:33;;;;;;;;;;;;;;;26.85;54.90;100213.75;5051290;28;20337;-68
2022/05/21 09:48:01;;;;;;;;;;;;;;;27.49;54.18;100206.00;5051231;28;19909;-67
2022/05/21 09:50:27;;;;;;;;;;;;;;;26.52;56.12;100205.38;5033238;28;20320;-68
2022/05/21 09:52:53;;;;;;;;;;;;;;;28.64;54.54;100212.13;5051059;28;19996;-68
2022/05/21 09:55:23;;;;;;;;;;;;;;;27.69;56.49;100202.31;5051998;28;19999;-68
2022/05/21 09:57:48;;;;;;;;;;;;;;;27.88;55.98;100210.03;5055224;28;19915;-68
2022/05/21 10:00:26;;;;;;;;;;;;;;;28.34;55.74;100209.88;5036864;28;19916;-68
2022/05/21 10:02:56;;;;;;;;;;;;;;;29.02;53.14;100210.88;5054676;28;20015;-68
2022/05/21 10:05:27;;;;;;;;;;;;;;;28.45;52.48;100204.38;5036533;28;19924;-68
2022/05/21 10:10:59;;;;;;;;;;;;;;;28.71;53.00;100199.22;5054442;28;19924;-67
2022/05/21 10:13:25;;;;;;;;;;;;;;;28.46;50.62;100190.34;5036439;28;20307;-68
2022/05/21 10:15:56;;;;;;;;;;;;;;;28.98;51.69;100194.66;5054245;28;19920;-67
2022/05/21 10:18:24;;;;;;;;;;;;;;;28.37;52.13;100187.78;5054696;28;19913;-68
2022/05/21 10:20:54;;;;;;;;;;;;;;;27.96;51.71;100187.44;5053830;28;19986;-69
2022/05/21 10:23:31;;;;;;;;;;;;;;;28.32;52.12;100185.66;5028236;28;20377;-69
2022/05/21 10:26:01;;;;;;;;;;;;;;;28.09;51.69;100187.06;5016488;28;20796;-68
2022/05/21 10:28:27;;;;;;;;;;;;;;;27.69;50.14;100179.59;5016397;28;19915;-67
2022/05/21 10:30:52;;;;;;;;;;;;;;;27.63;51.57;100179.38;5034439;28;19948;-67
2022/05/21 10:33:37;;;;;;;;;;;;;;;27.61;52.31;100173.47;5034365;28;20010;-68
2022/05/21 10:36:03;;;;;;;;;;;;;;;27.77;51.43;100168.44;5016583;28;19913;-68
2022/05/21 10:38:37;;;;;;;;;;;;;;;28.51;48.17;100174.16;5036410;28;19915;-67
2022/05/21 10:41:08;;;;;;;;;;;;;;;27.79;48.92;100158.66;5053393;28;19935;-66
2022/05/21 10:43:36;;;;;;;;;;;;;;;29.04;48.92;100146.06;5053417;28;19924;-67
2022/05/21 10:46:20;;;;;;;;;;;;;;;28.81;49.34;100151.03;5053068;28;19919;-67
2022/05/21 10:49:03;;;;;;;;;;;;;;;28.60;48.82;100150.56;5053103;28;20324;-71
2022/05/21 10:51:32;;;;;;;;;;;;;;;28.21;49.91;100141.41;5053382;28;20375;-64
2022/05/21 10:54:13;;;;;;;;;;;;;;;27.12;50.14;100145.91;5035531;28;20053;-66
2022/05/21 10:56:43;;;;;;;;;;;;;;;28.76;49.39;100144.63;5053294;28;19940;-64
2022/05/21 10:59:11;;;;;;;;;;;;;;;29.10;49.68;100135.78;5035175;28;20422;-69
2022/05/21 11:01:43;;;;;;;;;;;;;;;29.60;48.16;100127.13;5052955;28;19912;-66
2022/05/21 11:04:34;;;;;;;;;;;;;;;30.15;51.29;100122.94;5053121;28;19912;-66
2022/05/21 11:07:02;;;;;;;;;;;;;;;29.85;49.63;100127.03;5021336;28;19912;-66
2022/05/21 11:09:39;;;;;;;;;;;;;;;28.90;49.43;100129.13;5052996;28;19913;-67
2022/05/21 11:12:11;;;;;;;;;;;;;;;29.10;48.58;100120.06;5053114;28;19916;-67
2022/05/21 11:14:44;;;;;;;;;;;;;;;29.55;48.10;100119.75;5053278;28;19912;-68
2022/05/21 11:17:18;;;;;;;;;;;;;;;29.40;48.01;100126.56;5052933;28;19912;-68
2022/05/21 11:19:51;;;;;;;;;;;;;;;27.58;49.13;100116.25;5053176;28;19912;-68
2022/05/21 11:22:18;;;;;;;;;;;;;;;28.53;49.41;100115.47;5052520;28;20362;-68
2022/05/21 11:24:51;;;;;;;;;;;;;;;28.29;50.26;100112.69;5053043;28;20040;-68
2022/05/21 11:27:48;;;;;;;;;;;;;;;29.71;49.54;100098.81;5052886;28;19916;-67
2022/05/21 11:30:19;;;;;;;;;;;;;;;29.61;48.57;100090.28;4991382;28;19939;-68
2022/05/21 11:38:41;;;;;;;;;;;;;;;28.67;47.81;100080.91;5052373;28;20402;-68
2022/05/21 11:41:29;;;;;;;;;;;;;;;29.41;47.72;100072.38;5033409;28;19917;-68
2022/05/21 11:46:45;;;;;;;;;;;;;;;29.98;49.13;100065.38;5052477;28;20015;-67
2022/05/21 11:49:31;;;;;;;;;;;;;;;29.28;46.72;100067.59;5051502;28;19968;-71
2022/05/21 11:51:59;;;;;;;;;;;;;;;29.18;45.91;100056.41;5051545;28;19966;-68
2022/05/21 11:54:43;;;;;;;;;;;;;;;29.46;46.23;100052.56;5041677;28;19925;-68
2022/05/21 11:57:09;;;;;;;;;;;;;;;29.90;47.95;100046.06;5047662;28;19921;-68
2022/05/21 11:59:53;;;;;;;;;;;;;;;28.90;46.68;100039.28;5051921;28;20030;-71
2022/05/21 12:02:25;;;;;;;;;;;;;;;29.67;45.96;100034.53;5051622;28;20317;-68
2022/05/21 12:04:59;;;;;;;;;;;;;;;29.84;44.40;100038.84;5052305;28;19913;-72
2022/05/21 12:07:43;;;;;;;;;;;;;;;29.98;44.89;100037.34;5051901;28;19912;-67
2022/05/21 12:10:29;;;;;;;;;;;;;;;29.97;43.38;100033.09;5049804;28;20379;-72
2022/05/21 12:13:16;;;;;;;;;;;;;;;30.21;43.13;100027.81;4668011;28;10000904;-66
2022/05/21 12:15:47;;;;;;;;;;;;;;;30.00;44.05;100026.69;5050370;28;19917;-66
2022/05/21 12:18:30;;;;;;;;;;;;;;;29.87;42.97;100024.59;5049224;28;19989;-67
2022/05/21 12:20:55;;;;;;;;;;;;;;;29.85;45.25;100019.50;5049316;28;20012;-68
2022/05/21 12:23:27;;;;;;;;;;;;;;;29.58;43.91;100013.72;5049502;28;20007;-67
2022/05/21 12:25:53;;;;;;;;;;;;;;;29.90;43.93;100009.34;5049521;28;19920;-65
2022/05/21 12:28:19;;;;;;;;;;;;;;;29.88;43.59;99994.75;5047064;28;19916;-67
2022/05/21 12:30:44;;;;;;;;;;;;;;;29.35;42.63;99994.41;5055007;28;20294;-66
2022/05/21 12:33:22;;;;;;;;;;;;;;;29.91;41.18;99987.34;5068870;28;20172;-66
2022/05/21 12:35:55;;;;;;;;;;;;;;;30.22;40.80;99976.16;5050033;28;19913;-66
2022/05/21 12:38:29;;;;;;;;;;;;;;;30.44;39.53;99971.03;5069189;28;19916;-66
2022/05/21 12:41:10;;;;;;;;;;;;;;;29.80;40.85;99965.91;5069037;28;20303;-68
2022/05/21 12:44:02;;;;;;;;;;;;;;;30.29;41.64;99956.97;5068437;28;19924;-66
2022/05/21 12:46:28;;;;;;;;;;;;;;;29.57;42.07;99960.50;5064307;28;19916;-66
2022/05/21 12:48:55;;;;;;;;;;;;;;;29.29;40.17;99960.97;5049922;28;19916;-68
2022/05/21 12:51:24;;;;;;;;;;;;;;;29.70;40.84;99957.34;5068244;28;19916;-65
2022/05/21 12:53:52;;;;;;;;;;;;;;;29.66;40.42;99953.44;5050910;28;19913;-67
2022/05/21 12:56:20;;;;;;;;;;;;;;;30.59;39.91;99943.06;5068233;28;19924;-62
2022/05/21 12:58:45;;;;;;;;;;;;;;;29.96;40.30;99944.91;5067524;28;19920;-68
2022/05/21 13:01:31;;;;;;;;;;;;;;;30.23;38.30;99941.84;5068805;28;19923;-64
2022/05/21 13:03:58;;;;;;;;;;;;;;;29.86;40.86;99942.47;5067720;28;19920;-64
2022/05/21 13:06:26;;;;;;;;;;;;;;;29.78;37.50;99929.38;5067921;28;19923;-68
2022/05/21 13:08:52;;;;;;;;;;;;;;;29.71;36.17;99928.38;5068425;28;19920;-72
2022/05/21 13:11:22;;;;;;;;;;;;;;;30.09;39.67;99921.56;5060712;28;20373;-64
2022/05/21 13:13:57;;;;;;;;;;;;;;;30.06;40.17;99919.31;5047921;28;19913;-66
2022/05/21 13:16:23;;;;;;;;;;;;;;;30.12;39.28;99915.19;5048016;28;19923;-66
2022/05/21 13:18:49;;;;;;;;;;;;;;;30.73;36.60;99918.69;5047845;28;19917;-65
2022/05/21 13:21:14;;;;;;;;;;;;;;;30.95;36.33;99916.28;5047635;28;19921;-66